Time;durP1;ratioP1;P1;durP2;ratioP2;P2;SDS_P1;SDS_P2;PMS_P1;PMS_P2;Temp;Humidity;BMP_temperature;BMP_pressure;BME280_temperature;BME280_humidity;BME280_pressure;Samples;Min_cycle;Max_cycle;Signal;HPM_P1;HPM_P2
2021/05/29 00:00:48;;;;;;;3.75;2.65;;;384.30;2176.00;;;;;;5093865;28;20032;-79
2021/05/29 00:03:14;;;;;;;4.80;2.88;;;384.30;2176.00;;;;;;5094282;28;20023;-79
2021/05/29 00:05:41;;;;;;;4.30;2.65;;;384.20;2176.00;;;;;;5090295;28;20040;-79
2021/05/29 00:08:07;;;;;;;4.18;2.47;;;384.20;2176.00;;;;;;5090947;28;20020;-79
2021/05/29 00:10:34;;;;;;;5.20;2.53;;;384.10;2176.00;;;;;;5093903;28;20028;-79
2021/05/29 00:13:00;;;;;;;7.60;2.60;;;384.20;2201.60;;;;;;5084034;28;20085;-78
2021/05/29 00:15:27;;;;;;;3.67;2.55;;;384.20;2201.60;;;;;;5093518;28;20107;-78
2021/05/29 00:17:54;;;;;;;4.07;2.83;;;384.20;2201.60;;;;;;5093862;28;20040;-78
2021/05/29 00:20:20;;;;;;;3.42;2.80;;;384.00;2201.60;;;;;;5093551;28;20024;-79
2021/05/29 00:22:45;;;;;;;5.60;2.72;;;384.00;2227.20;;;;;;5095012;28;20111;-79
2021/05/29 00:25:11;;;;;;;3.97;3.00;;;384.00;2227.20;;;;;;5097587;28;20114;-79
2021/05/29 00:27:37;;;;;;;3.83;2.63;;;384.00;2227.20;;;;;;5099467;28;20707;-79
2021/05/29 00:30:05;;;;;;;6.05;2.83;;;359.30;2227.20;;;;;;5095241;28;20027;-79
2021/05/29 00:32:31;;;;;;;3.35;2.50;;;359.30;2227.20;;;;;;5088456;28;20704;-79
2021/05/29 00:34:56;;;;;;;5.05;2.63;;;359.30;2227.20;;;;;;5091795;28;20020;-79
2021/05/29 00:37:22;;;;;;;3.70;2.42;;;359.30;2227.20;;;;;;5093033;28;20484;-79
2021/05/29 00:39:48;;;;;;;6.13;3.10;;;384.00;2227.20;;;;;;5081711;28;20480;-80
2021/05/29 00:42:14;;;;;;;4.65;2.70;;;359.30;2252.80;;;;;;5094287;28;20077;-79
2021/05/29 00:44:52;;;;;;;4.85;2.40;;;359.30;2252.80;;;;;;5102994;28;20023;-78
2021/05/29 00:47:23;;;;;;;4.18;2.75;;;384.00;2227.20;;;;;;5084243;28;20099;-78
2021/05/29 00:49:50;;;;;;;5.00;2.83;;;359.30;2252.80;;;;;;5094255;28;20096;-78
2021/05/29 00:52:17;;;;;;;4.90;2.80;;;359.20;2252.80;;;;;;5081933;28;20069;-78
2021/05/29 00:54:43;;;;;;;6.20;3.03;;;359.20;2252.80;;;;;;5094146;28;20081;-78
2021/05/29 00:57:11;;;;;;;4.40;2.58;;;359.30;2252.80;;;;;;5089887;28;20028;-78
2021/05/29 00:59:37;;;;;;;8.20;2.90;;;359.20;2252.80;;;;;;5086730;28;20077;-79
2021/05/29 01:02:08;;;;;;;5.60;3.40;;;359.10;2252.80;;;;;;5082893;28;20090;-78
2021/05/29 01:04:34;;;;;;;4.68;2.75;;;359.10;2278.40;;;;;;5081268;28;20020;-78
2021/05/29 01:07:01;;;;;;;4.22;2.20;;;359.00;2304.00;;;;;;5078768;28;20504;-79
2021/05/29 01:09:27;;;;;;;5.05;2.80;;;358.90;2304.00;;;;;;5076820;28;20112;-79
2021/05/29 01:11:53;;;;;;;5.60;2.42;;;358.90;2304.00;;;;;;5079319;28;20111;-79
2021/05/29 01:14:19;;;;;;;4.45;3.13;;;358.80;2329.60;;;;;;5092429;28;20119;-79
2021/05/29 01:17:14;;;;;;;4.97;2.15;;;358.70;2329.60;;;;;;5091946;28;20020;-79
2021/05/29 01:19:40;;;;;;;4.07;2.80;;;358.70;2329.60;;;;;;4994655;28;20053;-79
2021/05/29 01:22:10;;;;;;;4.50;2.72;;;358.60;2329.60;;;;;;5011754;28;20021;-79
2021/05/29 01:24:37;;;;;;;3.38;2.33;;;358.60;2329.60;;;;;;4995010;28;20040;-79
2021/05/29 01:27:03;;;;;;;5.82;2.78;;;358.60;2329.60;;;;;;5011811;28;20030;-80
2021/05/29 01:29:29;;;;;;;3.88;2.40;;;358.50;2329.60;;;;;;5010825;28;20630;-79
2021/05/29 01:32:01;;;;;;;6.68;2.58;;;358.50;2329.60;;;;;;4995483;28;20142;-79
2021/05/29 01:34:35;;;;;;;3.95;2.40;;;358.50;2329.60;;;;;;5011847;28;20030;-79
2021/05/29 01:37:04;;;;;;;4.68;3.13;;;358.50;2329.60;;;;;;5005112;28;20124;-79
2021/05/29 01:39:31;;;;;;;3.65;2.60;;;358.40;2329.60;;;;;;4994585;28;20053;-79
2021/05/29 01:41:57;;;;;;;5.63;2.92;;;358.40;2329.60;;;;;;4994777;28;20114;-79
2021/05/29 01:44:23;;;;;;;6.25;2.78;;;333.70;2329.60;;;;;;4995431;28;20036;-79
2021/05/29 01:46:51;;;;;;;4.05;2.55;;;333.70;2329.60;;;;;;4994638;28;20069;-79
2021/05/29 01:49:17;;;;;;;3.17;2.50;;;333.70;2329.60;;;;;;4992668;28;20033;-80
2021/05/29 01:51:43;;;;;;;5.60;2.50;;;333.60;2329.60;;;;;;4994669;28;20033;-79
2021/05/29 01:54:13;;;;;;;4.18;2.97;;;333.50;2329.60;;;;;;4993884;28;20038;-79
2021/05/29 01:56:38;;;;;;;3.40;2.60;;;333.50;2329.60;;;;;;5066847;28;20032;-79
2021/05/29 01:59:04;;;;;;;4.57;2.67;;;333.60;2329.60;;;;;;5091608;28;20020;-79
2021/05/29 02:01:30;;;;;;;5.25;2.70;;;333.50;2329.60;;;;;;5092420;28;20467;-79
2021/05/29 02:03:55;;;;;;;4.05;2.72;;;333.40;2329.60;;;;;;5092841;28;20020;-78
2021/05/29 02:06:21;;;;;;;4.00;2.72;;;333.50;2329.60;;;;;;5085392;28;20124;-79
2021/05/29 02:08:47;;;;;;;3.53;2.47;;;333.40;2329.60;;;;;;5086967;28;20450;-78
2021/05/29 02:11:13;;;;;;;6.65;3.67;;;333.30;2329.60;;;;;;5093385;28;20097;-79
2021/05/29 02:13:40;;;;;;;3.28;2.63;;;333.30;2329.60;;;;;;5083047;28;20035;-79
2021/05/29 02:16:09;;;;;;;4.30;3.10;;;333.30;2329.60;;;;;;5081706;28;20026;-79
2021/05/29 02:18:36;;;;;;;8.52;3.08;;;333.30;2329.60;;;;;;5083191;28;20019;-78
2021/05/29 02:21:07;;;;;;;5.43;3.38;;;333.30;2329.60;;;;;;5090710;28;20396;-78
2021/05/29 02:23:39;;;;;;;5.40;2.78;;;333.20;2329.60;;;;;;5090925;28;20017;-78
2021/05/29 02:26:09;;;;;;;5.43;3.50;;;333.20;2329.60;;;;;;5092464;28;20024;-78
2021/05/29 02:28:36;;;;;;;7.63;2.83;;;333.10;2329.60;;;;;;5088156;28;20488;-78
2021/05/29 02:31:04;;;;;;;4.93;3.25;;;333.10;2329.60;;;;;;5091270;28;20023;-80
2021/05/29 02:33:29;;;;;;;7.35;3.15;;;333.10;2329.60;;;;;;5090996;28;20024;-78
2021/05/29 02:35:57;;;;;;;5.85;2.90;;;333.00;2329.60;;;;;;5091355;28;20082;-79
2021/05/29 02:38:23;;;;;;;3.97;2.90;;;333.00;2329.60;;;;;;5087716;28;20439;-78
2021/05/29 02:40:49;;;;;;;5.47;3.13;;;333.00;2329.60;;;;;;5081897;28;20020;-79
2021/05/29 02:43:15;;;;;;;5.93;3.58;;;332.90;2329.60;;;;;;5092358;28;20076;-78
2021/05/29 02:45:41;;;;;;;6.13;3.20;;;333.00;2329.60;;;;;;5087627;28;20476;-78
2021/05/29 02:48:14;;;;;;;6.40;3.22;;;332.90;2329.60;;;;;;5090877;28;20387;-79
2021/05/29 02:50:41;;;;;;;4.78;3.20;;;332.80;2329.60;;;;;;5088081;28;20038;-78
2021/05/29 02:53:07;;;;;;;5.15;3.40;;;308.10;2304.00;;;;;;5090732;28;20024;-78
2021/05/29 02:55:34;;;;;;;5.15;4.13;;;307.90;2304.00;;;;;;5076395;28;20046;-78
2021/05/29 02:58:00;;;;;;;6.10;3.83;;;307.90;2304.00;;;;;;5078578;28;20025;-78
2021/05/29 03:00:35;;;;;;;8.35;5.13;;;307.90;2304.00;;;;;;5071853;28;20020;-78
2021/05/29 03:03:03;;;;;;;8.02;4.93;;;307.70;2304.00;;;;;;5077912;28;20019;-79
2021/05/29 03:05:29;;;;;;;8.82;5.60;;;307.50;2304.00;;;;;;5083192;28;20004;-79
2021/05/29 03:07:55;;;;;;;7.38;5.50;;;307.40;2304.00;;;;;;5090938;28;20024;-78
2021/05/29 03:10:22;;;;;;;9.25;6.20;;;307.30;2304.00;;;;;;5079550;28;20373;-78
2021/05/29 03:12:49;;;;;;;10.60;6.63;;;307.30;2304.00;;;;;;5072247;28;20028;-78
2021/05/29 03:15:18;;;;;;;12.15;6.13;;;307.30;2304.00;;;;;;5076072;28;20111;-79
2021/05/29 03:17:45;;;;;;;8.50;5.80;;;307.30;2304.00;;;;;;5084274;28;20065;-78
2021/05/29 03:20:13;;;;;;;12.07;6.50;;;307.40;2304.00;;;;;;5076173;28;20016;-78
2021/05/29 03:22:39;;;;;;;9.15;5.53;;;307.40;2304.00;;;;;;5078413;28;20088;-79
2021/05/29 03:25:07;;;;;;;10.07;5.38;;;307.50;2304.00;;;;;;5092445;28;20103;-79
2021/05/29 03:27:33;;;;;;;9.02;5.10;;;307.60;2304.00;;;;;;5094458;28;20063;-79
2021/05/29 03:29:59;;;;;;;7.60;5.47;;;307.70;2304.00;;;;;;5096302;28;20028;-78
2021/05/29 03:32:25;;;;;;;9.27;5.53;;;307.80;2304.00;;;;;;5093998;28;20745;-79
2021/05/29 03:34:50;;;;;;;8.23;4.82;;;307.70;2304.00;;;;;;5095231;28;20097;-78
2021/05/29 03:37:16;;;;;;;8.70;5.65;;;307.70;2304.00;;;;;;5094457;28;20492;-78
2021/05/29 03:39:42;;;;;;;9.93;5.20;;;307.60;2304.00;;;;;;5083183;28;20021;-77
2021/05/29 03:42:08;;;;;;;7.20;5.00;;;307.50;2304.00;;;;;;5092384;28;20085;-78
2021/05/29 03:44:34;;;;;;;9.38;5.00;;;307.50;2304.00;;;;;;5094269;28;20032;-78
2021/05/29 03:46:59;;;;;;;8.38;6.03;;;307.60;2304.00;;;;;;5083401;28;20510;-78
2021/05/29 03:49:25;;;;;;;11.75;6.15;;;307.70;2304.00;;;;;;5094089;28;20028;-79
2021/05/29 03:51:51;;;;;;;9.20;5.88;;;307.90;2304.00;;;;;;5093381;28;20035;-79
2021/05/29 03:54:17;;;;;;;13.98;6.40;;;307.90;2304.00;;;;;;5094031;28;20024;-78
2021/05/29 03:56:43;;;;;;;8.30;5.50;;;308.10;2304.00;;;;;;5095466;28;20028;-79
2021/05/29 03:59:13;;;;;;;8.15;5.80;;;308.10;2304.00;;;;;;5081943;28;20384;-79
2021/05/29 04:01:40;;;;;;;8.25;5.95;;;332.90;2329.60;;;;;;5083184;28;20791;-79
2021/05/29 04:04:10;;;;;;;7.13;5.35;;;332.90;2329.60;;;;;;5093352;28;20105;-79
2021/05/29 04:06:37;;;;;;;8.20;5.00;;;333.10;2329.60;;;;;;5093672;28;20048;-80
2021/05/29 04:09:05;;;;;;;8.10;5.32;;;333.10;2329.60;;;;;;5091504;28;20024;-79
2021/05/29 04:11:31;;;;;;;6.70;4.60;;;333.10;2329.60;;;;;;5093607;28;20484;-79
2021/05/29 04:13:57;;;;;;;11.88;5.57;;;333.30;2329.60;;;;;;5082857;28;20103;-79
2021/05/29 04:16:23;;;;;;;9.88;5.47;;;333.30;2329.60;;;;;;5076796;28;20032;-79
2021/05/29 04:18:49;;;;;;;7.07;4.95;;;333.40;2329.60;;;;;;5095000;28;20531;-79
2021/05/29 04:21:15;;;;;;;7.22;5.07;;;333.50;2329.60;;;;;;5092938;28;20107;-79
2021/05/29 04:23:41;;;;;;;5.82;4.28;;;358.40;2329.60;;;;;;5093176;28;20463;-79
2021/05/29 04:26:08;;;;;;;9.18;4.70;;;358.50;2329.60;;;;;;5093946;28;20499;-79
2021/05/29 04:28:35;;;;;;;8.32;4.93;;;358.60;2329.60;;;;;;5091876;28;20024;-80
2021/05/29 04:31:02;;;;;;;7.28;5.18;;;358.70;2329.60;;;;;;5093878;28;20387;-79
2021/05/29 04:33:28;;;;;;;8.32;5.47;;;359.00;2329.60;;;;;;5073986;28;20028;-79
2021/05/29 04:35:53;;;;;;;9.43;4.78;;;359.20;2329.60;;;;;;5073554;28;20037;-79
2021/05/29 04:38:19;;;;;;;5.68;4.82;;;359.20;2329.60;;;;;;5075721;28;20551;-79
2021/05/29 04:40:45;;;;;;;10.60;5.22;;;359.30;2329.60;;;;;;5093186;28;20047;-79
2021/05/29 04:43:11;;;;;;;9.18;4.70;;;384.10;2329.60;;;;;;5080166;28;20069;-79
2021/05/29 04:45:37;;;;;;;6.45;5.13;;;384.10;2329.60;;;;;;5084432;28;20017;-79
2021/05/29 04:48:03;;;;;;;8.80;5.05;;;384.20;2329.60;;;;;;5085474;28;20028;-78
2021/05/29 04:50:29;;;;;;;8.15;5.47;;;384.20;2329.60;;;;;;5092827;28;20384;-78
2021/05/29 04:52:56;;;;;;;7.85;4.63;;;384.40;2329.60;;;;;;5082142;28;20035;-78
2021/05/29 04:55:22;;;;;;;9.27;4.72;;;384.40;2329.60;;;;;;5075623;28;20028;-78
2021/05/29 04:57:47;;;;;;;6.03;4.47;;;384.50;2329.60;;;;;;5092199;28;20035;-78
2021/05/29 05:00:16;;;;;;;10.80;5.38;;;384.60;2329.60;;;;;;5091527;28;20047;-77
2021/05/29 05:02:42;;;;;;;7.82;4.93;;;384.70;2329.60;;;;;;5074873;28;20020;-77
2021/05/29 05:05:08;;;;;;;7.45;5.60;;;384.90;2329.60;;;;;;5074033;28;20028;-78
2021/05/29 05:07:35;;;;;;;12.75;7.40;;;409.60;2355.20;;;;;;5073953;28;20497;-78
2021/05/29 05:10:01;;;;;;;11.75;7.70;;;409.70;2355.20;;;;;;5093825;28;20028;-77
2021/05/29 05:12:27;;;;;;;9.95;6.47;;;410.00;2304.00;;;;;;5093017;28;20093;-78
2021/05/29 05:14:53;;;;;;;9.50;7.03;;;410.10;2304.00;;;;;;5092216;28;20070;-78
2021/05/29 05:17:18;;;;;;;12.48;6.72;;;410.20;2278.40;;;;;;5093509;28;20456;-77
2021/05/29 05:19:44;;;;;;;6.55;4.55;;;410.50;2252.80;;;;;;5093889;28;20020;-78
2021/05/29 05:22:10;;;;;;;7.65;4.78;;;435.20;2227.20;;;;;;5092019;28;20089;-78
2021/05/29 05:24:36;;;;;;;6.13;4.25;;;435.40;2201.60;;;;;;5078502;28;20541;-78
2021/05/29 05:27:02;;;;;;;5.93;4.10;;;435.80;2176.00;;;;;;5093094;28;20032;-78
2021/05/29 05:29:28;;;;;;;5.40;4.63;;;435.80;2176.00;;;;;;5092198;28;20031;-78
2021/05/29 05:31:54;;;;;;;6.28;4.05;;;435.80;2176.00;;;;;;5092334;28;20104;-78
2021/05/29 05:34:20;;;;;;;5.70;4.05;;;435.90;2176.00;;;;;;5093699;28;20058;-77
2021/05/29 05:36:46;;;;;;;6.03;4.60;;;460.80;2176.00;;;;;;5091941;28;20051;-78
2021/05/29 05:39:14;;;;;;;8.15;4.43;;;460.90;2150.40;;;;;;5093650;28;20028;-78
2021/05/29 05:41:40;;;;;;;5.43;4.28;;;460.90;2150.40;;;;;;5091981;28;20383;-77
2021/05/29 05:44:07;;;;;;;5.40;4.18;;;461.10;2124.80;;;;;;5091768;28;20138;-77
2021/05/29 05:46:34;;;;;;;4.90;3.63;;;461.10;2124.80;;;;;;5093089;28;20023;-78
2021/05/29 05:49:00;;;;;;;6.95;4.60;;;461.40;2124.80;;;;;;5090822;28;20039;-78
2021/05/29 05:51:26;;;;;;;5.63;4.28;;;461.60;2073.60;;;;;;5095777;28;20438;-77
2021/05/29 05:53:52;;;;;;;6.63;3.95;;;461.40;2073.60;;;;;;5091771;28;20020;-77
2021/05/29 05:56:25;;;;;;;5.63;4.75;;;461.60;2073.60;;;;;;5091745;28;20028;-77
2021/05/29 05:58:53;;;;;;;9.80;4.40;;;461.60;2073.60;;;;;;5088939;28;20100;-77
2021/05/29 06:01:20;;;;;;;8.35;4.00;;;486.50;2048.00;;;;;;5079356;28;20019;-77
2021/05/29 06:03:46;;;;;;;7.07;4.25;;;486.70;2022.40;;;;;;5091738;28;20051;-78
2021/05/29 06:06:11;;;;;;;5.88;3.95;;;486.90;1996.80;;;;;;5083392;28;20071;-77
2021/05/29 06:08:37;;;;;;;5.05;3.75;;;487.00;1996.80;;;;;;5088408;28;20035;-77
2021/05/29 06:11:03;;;;;;;6.40;3.95;;;487.10;1971.20;;;;;;5089794;28;20024;-77
2021/05/29 06:17:57;;;;;;;7.28;4.63;;;487.20;1971.20;;;;;;5088692;28;20553;-77
2021/05/29 06:19:16;;;;;;;5.57;4.00;;;512.10;1920.00;;;;;;5084661;28;20028;-79
2021/05/29 06:21:48;;;;;;;6.18;3.83;;;512.00;1894.40;;;;;;5083613;28;20050;-77
2021/05/29 06:24:20;;;;;;;4.03;3.25;;;512.10;1868.80;;;;;;5083904;28;20016;-78
2021/05/29 06:26:47;;;;;;;6.32;3.83;;;512.30;1843.20;;;;;;5087544;28;20119;-78
2021/05/29 06:29:13;;;;;;;3.78;3.00;;;512.80;1792.00;;;;;;5086690;28;20020;-78
2021/05/29 06:31:39;;;;;;;6.32;3.08;;;512.80;1817.60;;;;;;5083581;28;20023;-78
2021/05/29 06:34:05;;;;;;;4.50;3.22;;;537.70;1792.00;;;;;;5084589;28;20106;-78
2021/05/29 06:36:31;;;;;;;4.13;3.20;;;538.10;1766.40;;;;;;5086343;28;20439;-78
2021/05/29 06:38:57;;;;;;;5.68;3.47;;;537.60;1766.40;;;;;;5087498;28;20099;-78
2021/05/29 06:41:23;;;;;;;4.45;3.10;;;512.70;1766.40;;;;;;5085320;28;20027;-78
2021/05/29 06:43:50;;;;;;;5.13;3.05;;;537.60;1792.00;;;;;;5084656;28;20020;-78
2021/05/29 06:46:17;;;;;;;4.10;2.65;;;537.80;1766.40;;;;;;5085120;28;20028;-78
2021/05/29 06:48:43;;;;;;;3.45;2.67;;;538.00;1715.20;;;;;;5085263;28;20081;-78
2021/05/29 06:51:12;;;;;;;3.42;2.38;;;538.30;1689.60;;;;;;5084957;28;20032;-78
2021/05/29 06:53:44;;;;;;;4.18;3.20;;;538.50;1689.60;;;;;;5081686;28;20050;-78
2021/05/29 06:58:54;;;;;;;4.45;2.20;;;563.60;1664.00;;;;;;5090072;28;20097;-78
2021/05/29 07:01:22;;;;;;;3.85;2.40;;;563.60;1638.40;;;;;;5084469;28;20028;-76
2021/05/29 07:03:49;;;;;;;3.50;2.67;;;563.50;1638.40;;;;;;5085439;28;20048;-76
2021/05/29 07:06:16;;;;;;;6.15;2.78;;;563.50;1638.40;;;;;;5086103;28;20121;-77
2021/05/29 07:08:44;;;;;;;5.07;2.58;;;563.60;1612.80;;;;;;5086372;28;20048;-77
2021/05/29 07:11:09;;;;;;;5.07;2.67;;;563.70;1612.80;;;;;;5088492;28;20032;-77
2021/05/29 07:13:35;;;;;;;4.80;3.17;;;564.00;1612.80;;;;;;5088794;28;20020;-77
2021/05/29 07:16:01;;;;;;;3.00;2.40;;;588.80;1612.80;;;;;;5084859;28;20101;-77
2021/05/29 07:18:31;;;;;;;5.00;2.55;;;588.80;1536.00;;;;;;5083317;28;20035;-77
2021/05/29 07:20:58;;;;;;;4.95;2.47;;;563.90;1536.00;;;;;;5083664;28;20024;-77
2021/05/29 07:23:24;;;;;;;3.20;2.45;;;563.90;1536.00;;;;;;5086710;28;20357;-77
2021/05/29 07:25:50;;;;;;;3.00;2.38;;;588.80;1536.00;;;;;;5087982;28;20028;-77
2021/05/29 07:28:16;;;;;;;2.53;2.10;;;589.10;1510.40;;;;;;5086883;28;20032;-77
2021/05/29 07:30:43;;;;;;;3.97;2.25;;;589.40;1459.20;;;;;;5085165;28;20535;-78
2021/05/29 07:33:10;;;;;;;3.28;2.00;;;589.60;1459.20;;;;;;5088616;28;20043;-77
2021/05/29 07:35:36;;;;;;;8.23;3.40;;;589.30;1459.20;;;;;;5087010;28;20028;-78
2021/05/29 07:38:02;;;;;;;4.43;2.75;;;589.50;1459.20;;;;;;5085652;28;20036;-78
2021/05/29 07:40:28;;;;;;;4.30;2.58;;;589.30;1459.20;;;;;;5079110;28;20037;-78
2021/05/29 07:42:54;;;;;;;4.60;2.30;;;589.20;1433.60;;;;;;5079848;28;20028;-78
2021/05/29 07:45:19;;;;;;;7.20;2.30;;;589.50;1433.60;;;;;;5086750;28;20047;-78
2021/05/29 07:47:45;;;;;;;4.05;2.63;;;614.40;1433.60;;;;;;5091525;28;20480;-78
2021/05/29 07:50:11;;;;;;;3.50;2.22;;;589.50;1433.60;;;;;;5087282;28;20070;-78
2021/05/29 07:52:37;;;;;;;3.92;2.40;;;589.10;1433.60;;;;;;5086430;28;20020;-78
2021/05/29 07:55:05;;;;;;;4.25;2.22;;;589.40;1433.60;;;;;;5085717;28;20503;-79
2021/05/29 07:57:34;;;;;;;3.80;2.10;;;589.60;1459.20;;;;;;5088252;28;20020;-78
2021/05/29 08:00:01;;;;;;;5.50;2.40;;;614.40;1459.20;;;;;;5083887;28;20434;-78
2021/05/29 08:02:29;;;;;;;4.78;2.38;;;614.80;1408.00;;;;;;5087715;28;20464;-78
2021/05/29 08:04:55;;;;;;;8.82;2.45;;;615.00;1356.80;;;;;;5087031;28;20024;-79
2021/05/29 08:07:21;;;;;;;5.13;2.00;;;615.10;1331.20;;;;;;5086474;28;20071;-78
2021/05/29 08:09:47;;;;;;;3.55;2.08;;;615.20;1305.60;;;;;;5090367;28;20463;-78
2021/05/29 08:12:13;;;;;;;3.22;2.13;;;615.20;1305.60;;;;;;5086836;28;20103;-78
2021/05/29 08:14:39;;;;;;;3.92;2.38;;;640.10;1305.60;;;;;;5091082;28;20028;-78
2021/05/29 08:17:06;;;;;;;3.65;2.20;;;640.20;1280.00;;;;;;5086473;28;20031;-77
2021/05/29 08:19:32;;;;;;;3.88;1.92;;;640.10;1305.60;;;;;;5085587;28;20028;-78
2021/05/29 08:21:58;;;;;;;2.33;1.85;;;615.10;1305.60;;;;;;5090273;28;20396;-78
2021/05/29 08:24:24;;;;;;;4.57;2.28;;;615.10;1305.60;;;;;;5090843;28;20027;-79
2021/05/29 08:26:52;;;;;;;3.85;2.17;;;614.90;1331.20;;;;;;5086152;28;20100;-78
2021/05/29 08:29:18;;;;;;;3.08;2.00;;;640.00;1280.00;;;;;;5086359;28;20107;-77
2021/05/29 08:31:44;;;;;;;6.57;2.40;;;640.00;1280.00;;;;;;5090319;28;20093;-78
2021/05/29 08:34:11;;;;;;;3.25;2.58;;;615.10;1305.60;;;;;;5090158;28;20480;-77
2021/05/29 08:36:37;;;;;;;6.70;2.28;;;640.00;1280.00;;;;;;5092156;28;20503;-77
2021/05/29 08:39:09;;;;;;;2.58;1.95;;;640.20;1280.00;;;;;;5091126;28;20031;-78
2021/05/29 08:41:36;;;;;;;2.47;1.70;;;615.20;1280.00;;;;;;5084980;28;20024;-78
2021/05/29 08:44:04;;;;;;;6.10;2.55;;;640.00;1305.60;;;;;;5089479;28;20055;-78
2021/05/29 08:46:30;;;;;;;3.92;2.75;;;640.70;1254.40;;;;;;5093070;28;20484;-78
2021/05/29 08:48:57;;;;;;;3.83;2.40;;;640.60;1254.40;;;;;;5081823;28;20032;-78
2021/05/29 08:51:23;;;;;;;4.25;2.22;;;665.80;1254.40;;;;;;5077587;28;20493;-78
2021/05/29 08:53:52;;;;;;;4.60;2.53;;;666.10;1228.80;;;;;;5089753;28;20020;-77
2021/05/29 08:56:21;;;;;;;5.03;3.58;;;666.30;1203.20;;;;;;5090641;28;20024;-77
2021/05/29 08:58:48;;;;;;;3.72;2.22;;;691.40;1203.20;;;;;;5087296;28;20024;-78
2021/05/29 09:01:14;;;;;;;4.35;1.85;;;691.70;1177.60;;;;;;5084267;28;20028;-78
2021/05/29 09:03:50;;;;;;;4.25;2.35;;;691.20;1203.20;;;;;;5090888;28;20020;-78
2021/05/29 09:06:30;;;;;;;4.10;2.50;;;691.40;1177.60;;;;;;5086406;28;20067;-78
2021/05/29 09:08:58;;;;;;;4.90;3.00;;;691.80;1152.00;;;;;;5087982;28;20503;-78
2021/05/29 09:11:49;;;;;;;3.33;2.38;;;691.40;1228.80;;;;;;5092378;28;20120;-78
2021/05/29 09:14:24;;;;;;;5.68;2.70;;;691.30;1228.80;;;;;;5081858;28;20031;-78
2021/05/29 09:17:07;;;;;;;4.90;3.03;;;691.50;1203.20;;;;;;5093561;28;20032;-77
2021/05/29 09:20:07;;;;;;;6.28;2.50;;;691.90;1203.20;;;;;;5090292;28;20016;-78
2021/05/29 09:22:55;;;;;;;7.22;3.83;;;691.90;1177.60;;;;;;5079293;28;20034;-78
2021/05/29 09:25:23;;;;;;;3.50;2.15;;;691.20;1203.20;;;;;;5083775;28;20016;-77
2021/05/29 09:27:56;;;;;;;4.55;2.38;;;691.40;1203.20;;;;;;5092573;28;20023;-77
2021/05/29 09:30:35;;;;;;;8.35;2.70;;;691.40;1177.60;;;;;;5085153;28;20423;-78
2021/05/29 09:33:21;;;;;;;3.88;2.97;;;691.90;1152.00;;;;;;5087405;28;20032;-79
2021/05/29 09:35:55;;;;;;;5.22;2.80;;;692.00;1126.40;;;;;;5079331;28;20032;-79
2021/05/29 09:38:23;;;;;;;4.57;2.88;;;716.90;1177.60;;;;;;5092098;28;20032;-78
2021/05/29 09:40:54;;;;;;;3.97;3.00;;;716.80;1203.20;;;;;;5093116;28;20027;-79
2021/05/29 09:43:21;;;;;;;4.80;2.85;;;691.80;1203.20;;;;;;5092912;28;20043;-78
2021/05/29 09:46:01;;;;;;;3.42;2.08;;;716.80;1203.20;;;;;;5089214;28;20024;-78
2021/05/29 09:48:27;;;;;;;3.53;2.15;;;717.00;1177.60;;;;;;5090805;28;20393;-78
2021/05/29 09:51:08;;;;;;;3.85;2.78;;;717.30;1203.20;;;;;;5092756;28;20054;-78
2021/05/29 09:53:46;;;;;;;4.20;2.15;;;717.30;1152.00;;;;;;5089761;28;20760;-78
2021/05/29 09:56:36;;;;;;;6.25;3.78;;;716.80;1152.00;;;;;;5086601;28;20089;-78
2021/05/29 09:59:07;;;;;;;3.35;2.38;;;717.60;1126.40;;;;;;5091423;28;20080;-78
2021/05/29 10:01:39;;;;;;;4.28;2.75;;;717.30;1126.40;;;;;;5092976;28;20472;-78
2021/05/29 10:04:06;;;;;;;5.00;2.85;;;717.40;1126.40;;;;;;5090848;28;20032;-78
2021/05/29 10:06:32;;;;;;;3.85;2.25;;;717.50;1100.80;;;;;;5090343;28;20036;-78
2021/05/29 10:08:58;;;;;;;5.38;2.53;;;717.60;1075.20;;;;;;5090944;28;20024;-78
2021/05/29 10:11:23;;;;;;;5.30;2.53;;;742.70;1126.40;;;;;;5092743;28;20016;-78
2021/05/29 10:13:50;;;;;;;5.43;2.45;;;717.30;1100.80;;;;;;5092207;28;20456;-78
2021/05/29 10:16:17;;;;;;;3.72;2.42;;;717.20;1126.40;;;;;;5078629;28;20032;-78
2021/05/29 10:18:49;;;;;;;14.65;2.92;;;717.70;1075.20;;;;;;5078386;28;20524;-78
2021/05/29 10:21:15;;;;;;;4.68;2.38;;;742.40;1100.80;;;;;;5079015;28;20028;-78
2021/05/29 10:23:45;;;;;;;3.45;2.22;;;717.70;1075.20;;;;;;5082471;28;20029;-78
2021/05/29 10:26:15;;;;;;;7.05;2.60;;;717.70;1075.20;;;;;;5075305;28;20136;-77
2021/05/29 10:28:41;;;;;;;5.32;2.35;;;717.10;1100.80;;;;;;5094800;28;20044;-78
2021/05/29 10:31:08;;;;;;;4.65;3.17;;;717.00;1100.80;;;;;;5088328;28;20023;-77
2021/05/29 10:33:44;;;;;;;4.65;2.80;;;717.40;1075.20;;;;;;5083356;28;20085;-77
2021/05/29 10:36:38;;;;;;;3.90;2.10;;;717.70;1075.20;;;;;;5084707;28;20024;-78
2021/05/29 10:39:13;;;;;;;13.68;3.20;;;717.70;1049.60;;;;;;5083570;28;20033;-77
2021/05/29 10:41:52;;;;;;;6.93;2.83;;;742.40;1075.20;;;;;;5086743;28;20052;-78
2021/05/29 10:44:42;;;;;;;3.28;2.55;;;742.40;1049.60;;;;;;5091329;28;20027;-78
2021/05/29 10:47:20;;;;;;;5.45;3.70;;;717.70;1024.00;;;;;;5091406;28;20031;-78
2021/05/29 10:49:49;;;;;;;5.00;2.80;;;742.60;1075.20;;;;;;5076559;28;20708;-78
2021/05/29 10:52:30;;;;;;;5.53;3.63;;;743.00;1075.20;;;;;;5086691;28;20032;-78
2021/05/29 10:55:14;;;;;;;5.15;2.80;;;768.30;1024.00;;;;;;5078922;28;20027;-78
2021/05/29 10:57:57;;;;;;;3.67;2.55;;;768.70;998.40;;;;;;5079316;28;20037;-78
2021/05/29 11:00:35;;;;;;;2.88;1.88;;;768.50;1024.00;;;;;;5089999;28;20076;-78
2021/05/29 11:03:16;;;;;;;3.92;3.13;;;743.00;1075.20;;;;;;5090869;28;20020;-78
2021/05/29 11:06:02;;;;;;;3.80;2.60;;;742.40;1100.80;;;;;;5087958;28;20043;-78
2021/05/29 11:08:48;;;;;;;11.68;3.33;;;742.70;1049.60;;;;;;5089814;28;20040;-78
2021/05/29 11:11:42;;;;;;;3.47;2.50;;;768.30;1024.00;;;;;;5088681;28;20090;-78
2021/05/29 11:14:23;;;;;;;3.22;2.20;;;768.30;998.40;;;;;;5085423;28;20494;-78
2021/05/29 11:16:49;;;;;;;7.60;3.22;;;768.50;998.40;;;;;;5085465;28;20089;-78
2021/05/29 11:19:21;;;;;;;5.18;3.03;;;768.20;998.40;;;;;;5091787;28;20480;-78
2021/05/29 11:22:11;;;;;;;6.40;2.50;;;768.80;972.80;;;;;;5073411;28;20504;-78
2021/05/29 11:24:42;;;;;;;3.95;2.10;;;793.80;972.80;;;;;;5084281;28;20050;-78
2021/05/29 11:27:13;;;;;;;6.72;2.30;;;768.10;972.80;;;;;;5088926;28;20040;-79
2021/05/29 11:29:49;;;;;;;4.60;1.90;;;742.40;1024.00;;;;;;5088781;28;20023;-79
2021/05/29 11:32:15;;;;;;;6.70;2.42;;;717.50;1024.00;;;;;;5092295;28;20506;-79
2021/05/29 11:34:42;;;;;;;7.82;4.55;;;717.00;1075.20;;;;;;5092504;28;20031;-79
2021/05/29 11:37:15;;;;;;;3.20;2.33;;;717.50;1024.00;;;;;;5081434;28;20028;-79
2021/05/29 11:39:53;;;;;;;7.45;3.33;;;742.80;998.40;;;;;;5095666;28;20059;-79
2021/05/29 11:42:19;;;;;;;4.15;2.65;;;768.00;972.80;;;;;;5095524;28;20020;-78
2021/05/29 11:44:45;;;;;;;3.40;2.13;;;742.50;1049.60;;;;;;5093996;28;20407;-79
2021/05/29 11:47:16;;;;;;;2.63;2.15;;;717.10;1024.00;;;;;;5090703;28;20038;-79
2021/05/29 11:49:41;;;;;;;4.45;2.78;;;717.00;1049.60;;;;;;5093723;28;20035;-79
2021/05/29 11:52:08;;;;;;;3.75;2.05;;;742.60;1024.00;;;;;;5094205;28;20024;-78
2021/05/29 11:54:36;;;;;;;4.78;2.28;;;768.70;947.20;;;;;;5093890;28;20425;-78
2021/05/29 11:57:02;;;;;;;3.05;1.90;;;768.20;921.60;;;;;;5094038;28;20372;-78
2021/05/29 11:59:28;;;;;;;3.58;1.90;;;793.80;921.60;;;;;;5084453;28;20028;-79
2021/05/29 12:01:57;;;;;;;3.70;2.25;;;768.90;870.40;;;;;;5093616;28;20031;-80
2021/05/29 12:04:23;;;;;;;3.13;1.85;;;794.00;896.00;;;;;;5093431;28;20024;-79
2021/05/29 12:06:54;;;;;;;3.45;2.20;;;793.80;870.40;;;;;;5094648;28;20058;-78
2021/05/29 12:09:27;;;;;;;5.93;2.55;;;794.20;870.40;;;;;;5093758;28;20589;-78
2021/05/29 12:11:57;;;;;;;4.53;2.00;;;794.40;870.40;;;;;;5094683;28;20024;-78
2021/05/29 12:14:26;;;;;;;11.13;7.35;;;768.50;896.00;;;;;;5079492;28;20020;-78
2021/05/29 12:16:54;;;;;;;5.45;2.85;;;793.70;870.40;;;;;;5084780;28;20456;-78
2021/05/29 12:19:41;;;;;;;3.13;2.22;;;794.10;844.80;;;;;;5074392;28;20032;-78
2021/05/29 12:22:21;;;;;;;5.32;1.70;;;793.70;870.40;;;;;;5090490;28;20109;-79
2021/05/29 12:24:51;;;;;;;2.55;2.05;;;768.20;870.40;;;;;;5092728;28;20467;-78
2021/05/29 12:27:25;;;;;;;3.63;1.92;;;768.70;870.40;;;;;;5094096;28;20582;-78
2021/05/29 12:29:59;;;;;;;3.70;2.00;;;794.00;870.40;;;;;;5092573;28;20039;-79
2021/05/29 12:32:41;;;;;;;4.63;2.15;;;793.60;870.40;;;;;;5092771;28;20553;-78